createdAt,value
2018-12-06T00:04:21.098Z,17.37
2018-12-06T00:14:40.278Z,23.83
2018-12-06T00:24:59.131Z,17.57
2018-12-06T00:35:17.601Z,16.67
2018-12-06T00:45:36.489Z,14.13
2018-12-06T00:55:55.402Z,14.20
2018-12-06T01:06:13.873Z,16.43
2018-12-06T01:16:32.532Z,19.67
2018-12-06T01:26:52.023Z,9.37
2018-12-06T01:37:11.220Z,12.27
2018-12-06T01:47:31.070Z,16.90
2018-12-06T01:57:50.100Z,11.07
2018-12-06T02:08:09.204Z,11.67
2018-12-06T02:18:27.957Z,14.93
2018-12-06T02:28:46.715Z,12.83
2018-12-06T02:39:06.419Z,38.47
2018-12-06T02:49:25.094Z,54.87
2018-12-06T02:59:44.124Z,40.10
2018-12-06T03:10:02.521Z,19.87
2018-12-06T03:20:21.173Z,54.37
2018-12-06T03:30:40.322Z,20.27
2018-12-06T03:40:59.030Z,34.27
2018-12-06T03:51:17.983Z,27.77
2018-12-06T04:01:36.560Z,17.47
2018-12-06T04:11:54.743Z,18.20
2018-12-06T04:22:13.353Z,20.40
2018-12-06T04:32:32.192Z,15.07
2018-12-06T04:42:51.606Z,16.80
2018-12-06T04:53:10.791Z,18.17
2018-12-06T05:03:30.051Z,23.40
2018-12-06T05:13:49.781Z,17.27
2018-12-06T05:24:08.937Z,24.77
2018-12-06T05:34:27.788Z,19.63
2018-12-06T05:44:46.426Z,14.60
2018-12-06T05:55:06.179Z,13.50
2018-12-06T06:05:25.782Z,27.87
2018-12-06T06:15:44.531Z,24.17
2018-12-06T06:26:03.881Z,24.43
2018-12-06T06:36:23.112Z,12.90
2018-12-06T06:46:41.626Z,18.03
2018-12-06T06:57:00.566Z,17.97
2018-12-06T07:07:19.455Z,12.73
2018-12-06T07:17:38.733Z,18.83
2018-12-06T07:27:57.500Z,24.57
2018-12-06T07:38:16.079Z,19.87
2018-12-06T07:48:34.739Z,19.97
2018-12-06T07:58:53.493Z,19.80
2018-12-06T08:09:12.513Z,20.83
2018-12-06T08:22:57.739Z,20.53
2018-12-06T08:33:17.416Z,19.63
2018-12-06T08:43:37.236Z,18.93
2018-12-06T08:53:56.370Z,31.70
2018-12-06T09:04:15.805Z,19.80
2018-12-06T09:14:35.286Z,25.80
2018-12-06T09:24:54.966Z,19.50
2018-12-06T09:35:14.361Z,18.10
2018-12-06T09:45:34.051Z,18.77
2018-12-06T09:55:54.710Z,16.80
2018-12-06T10:06:14.362Z,15.87
2018-12-06T10:16:34.278Z,21.47
2018-12-06T10:26:53.587Z,19.60
2018-12-06T10:37:13.051Z,20.93
2018-12-06T10:47:32.092Z,18.73
2018-12-06T10:57:51.518Z,17.37
2018-12-06T11:08:11.240Z,20.63
2018-12-06T11:18:30.702Z,57.67
2018-12-06T11:28:50.058Z,26.30
2018-12-06T11:39:09.525Z,22.77
2018-12-06T11:49:28.778Z,21.27
2018-12-06T11:59:48.150Z,24.57
2018-12-06T12:10:08.378Z,27.70
2018-12-06T12:20:28.446Z,40.07
2018-12-06T12:30:47.941Z,30.27
2018-12-06T12:41:07.627Z,32.47
2018-12-06T12:51:27.532Z,22.70
2018-12-06T13:01:47.271Z,27.83
2018-12-06T13:12:09.015Z,31.80
2018-12-06T13:22:29.731Z,22.87
2018-12-06T13:32:50.469Z,22.53
2018-12-06T13:43:11.785Z,39.30
2018-12-06T13:53:31.954Z,29.40
2018-12-06T14:03:53.076Z,38.27
2018-12-06T14:14:13.152Z,25.83
2018-12-06T14:24:32.903Z,29.27
2018-12-06T14:34:53.286Z,38.37
2018-12-06T14:45:13.627Z,28.43
2018-12-06T14:55:35.329Z,41.67
2018-12-06T15:05:55.271Z,52.40
2018-12-06T15:16:16.112Z,67.03
2018-12-06T15:26:37.097Z,49.63
2018-12-06T15:36:56.552Z,47.17
2018-12-06T15:47:16.852Z,47.27
2018-12-06T15:57:37.008Z,42.40
2018-12-06T16:07:56.731Z,46.73
2018-12-06T16:18:17.340Z,46.97
2018-12-06T16:28:37.876Z,41.73
2018-12-06T16:38:57.941Z,46.50
2018-12-06T16:49:19.644Z,47.57
2018-12-06T16:59:40.067Z,45.23
2018-12-06T17:10:00.051Z,39.00
2018-12-06T17:20:20.843Z,46.57
2018-12-06T17:30:41.034Z,54.20
2018-12-06T17:41:02.138Z,55.87
2018-12-06T17:51:23.091Z,131.43
2018-12-06T18:01:42.915Z,61.33
2018-12-06T18:12:04.209Z,57.13
2018-12-06T18:22:24.787Z,51.60
2018-12-06T18:32:45.022Z,65.17
2018-12-06T18:43:06.164Z,197.50
2018-12-06T18:53:27.564Z,61.60
2018-12-06T19:03:49.516Z,46.70
2018-12-06T19:14:22.096Z,51.50
2018-12-06T19:24:43.839Z,147.27
2018-12-06T19:35:05.451Z,125.30
2018-12-06T19:45:26.400Z,51.17
2018-12-06T19:55:48.307Z,45.57
2018-12-06T20:06:11.261Z,49.57
2018-12-06T20:16:32.762Z,65.73
2018-12-06T20:26:53.701Z,69.57
2018-12-06T20:37:15.364Z,65.37
2018-12-06T20:47:37.122Z,80.13
2018-12-06T20:57:57.843Z,75.30
2018-12-06T21:08:18.879Z,85.10
2018-12-06T21:18:41.971Z,159.87
2018-12-06T21:29:09.986Z,137.40
2018-12-06T21:39:29.815Z,340.00
2018-12-06T21:49:51.680Z,344.17
2018-12-06T22:00:12.457Z,234.37
2018-12-06T22:10:31.439Z,190.00
2018-12-06T22:20:54.399Z,44.83
2018-12-06T22:31:14.883Z,60.03
2018-12-06T22:41:33.968Z,35.40
2018-12-06T22:51:53.453Z,23.10
2018-12-06T23:02:14.486Z,10.53
2018-12-06T23:12:34.543Z,13.10
2018-12-06T23:22:55.094Z,15.07
2018-12-06T23:33:14.885Z,8.90
2018-12-06T23:43:33.804Z,14.07
2018-12-06T23:53:53.735Z,13.23
